Time;durP1;ratioP1;P1;durP2;ratioP2;P2;SDS_P1;SDS_P2;PMS_P1;PMS_P2;Temp;Humidity;BMP_temperature;BMP_pressure;BME280_temperature;BME280_humidity;BME280_pressure;Samples;Min_cycle;Max_cycle;Signal;HPM_P1;HPM_P2
2023/08/20 00:00:12;;;;;;;10.10;9.02;;;27.30;81.40;;;;;;6188939;23;20001;-72
2023/08/20 00:02:40;;;;;;;9.93;8.35;;;27.30;81.30;;;;;;6215573;23;20013;-72
2023/08/20 00:05:06;;;;;;;10.20;8.82;;;27.30;81.40;;;;;;6188816;23;20043;-71
2023/08/20 00:07:32;;;;;;;11.07;8.68;;;27.30;81.20;;;;;;6215690;23;20004;-73
2023/08/20 00:09:58;;;;;;;9.65;8.60;;;27.30;81.10;;;;;;6188790;23;20005;-71
2023/08/20 00:12:26;;;;;;;12.70;8.20;;;27.30;81.10;;;;;;6215548;23;20403;-71
2023/08/20 00:15:07;;;;;;;13.23;8.77;;;27.30;81.10;;;;;;6215758;23;20044;-72
2023/08/20 00:17:37;;;;;;;10.05;8.85;;;27.20;81.10;;;;;;6215666;23;20028;-71
2023/08/20 00:20:12;;;;;;;11.02;9.88;;;27.20;81.10;;;;;;6215452;23;20055;-72
2023/08/20 00:22:39;;;;;;;10.07;8.90;;;27.20;81.00;;;;;;6215036;23;20063;-71
2023/08/20 00:25:05;;;;;;;13.70;8.32;;;27.20;80.90;;;;;;6215883;23;20028;-72
2023/08/20 00:27:32;;;;;;;12.80;8.98;;;27.20;80.90;;;;;;6215777;23;20020;-72
2023/08/20 00:29:58;;;;;;;10.98;9.57;;;27.20;80.90;;;;;;6215358;23;20047;-71
2023/08/20 00:32:23;;;;;;;12.65;8.80;;;27.20;81.00;;;;;;6215395;23;20004;-70
2023/08/20 00:34:49;;;;;;;11.13;9.02;;;27.20;81.30;;;;;;6215191;23;20005;-71
2023/08/20 00:37:15;;;;;;;11.70;9.43;;;27.10;81.30;;;;;;6183611;23;20096;-72
2023/08/20 00:39:40;;;;;;;11.48;8.85;;;27.10;81.10;;;;;;6185308;23;19997;-71
2023/08/20 00:42:07;;;;;;;9.98;8.98;;;27.10;81.10;;;;;;6185242;23;20009;-72
2023/08/20 00:44:34;;;;;;;13.02;9.05;;;27.10;81.30;;;;;;6185221;23;20001;-71
2023/08/20 00:47:05;;;;;;;13.77;9.18;;;27.00;81.30;;;;;;6185244;23;20008;-72
2023/08/20 00:49:31;;;;;;;12.43;9.07;;;27.10;81.40;;;;;;6185130;23;20084;-71
2023/08/20 00:51:58;;;;;;;11.70;9.68;;;27.00;81.20;;;;;;6184953;23;20067;-73
2023/08/20 00:54:25;;;;;;;10.57;9.25;;;27.00;81.20;;;;;;6185046;23;20056;-71
2023/08/20 00:56:51;;;;;;;14.65;9.27;;;27.00;81.30;;;;;;6185352;23;20004;-72
2023/08/20 00:59:17;;;;;;;13.38;9.48;;;27.00;81.40;;;;;;6181924;23;20060;-71
2023/08/20 01:01:43;;;;;;;11.75;8.82;;;27.00;81.30;;;;;;6180091;23;20419;-71
2023/08/20 01:04:09;;;;;;;12.55;9.35;;;27.00;81.30;;;;;;6182433;23;20016;-72
2023/08/20 01:07:01;;;;;;;10.05;8.98;;;27.00;81.40;;;;;;6184883;23;20001;-72
2023/08/20 01:10:08;;;;;;;12.48;9.20;;;27.00;81.50;;;;;;6183695;23;20009;-71
2023/08/20 01:12:35;;;;;;;11.13;9.55;;;27.00;81.40;;;;;;6184584;23;20001;-71
2023/08/20 01:15:01;;;;;;;10.45;8.95;;;27.00;81.50;;;;;;6185041;23;20377;-72
2023/08/20 01:17:27;;;;;;;9.73;8.73;;;26.90;81.60;;;;;;6185016;23;20011;-71
2023/08/20 01:19:53;;;;;;;13.30;9.20;;;26.90;81.60;;;;;;6184696;23;20016;-71
2023/08/20 01:22:44;;;;;;;10.77;9.48;;;26.90;81.70;;;;;;6184559;23;20002;-72
2023/08/20 01:25:28;;;;;;;10.70;9.60;;;26.90;81.60;;;;;;6184685;23;20001;-72
2023/08/20 01:28:39;;;;;;;11.27;9.57;;;26.90;81.80;;;;;;6184276;23;20001;-71
2023/08/20 01:31:06;;;;;;;11.15;9.38;;;26.90;81.80;;;;;;6177632;23;20080;-72
2023/08/20 01:33:32;;;;;;;12.73;9.27;;;26.90;82.00;;;;;;6184923;23;20466;-71
2023/08/20 01:35:57;;;;;;;10.50;9.50;;;26.80;82.10;;;;;;6199428;23;20022;-72
2023/08/20 01:38:23;;;;;;;11.05;9.95;;;26.80;82.20;;;;;;6217045;23;20055;-72
2023/08/20 01:40:49;;;;;;;14.73;9.80;;;26.70;82.30;;;;;;6217038;23;19996;-71
2023/08/20 01:43:15;;;;;;;15.77;9.50;;;26.70;82.40;;;;;;6216986;23;20012;-72
2023/08/20 01:45:41;;;;;;;12.02;9.60;;;26.70;82.50;;;;;;6216744;23;20028;-72
2023/08/20 01:48:07;;;;;;;11.43;9.48;;;26.70;82.40;;;;;;6190261;23;20491;-71
2023/08/20 01:50:35;;;;;;;12.95;8.90;;;26.70;82.50;;;;;;6217119;23;19999;-72
2023/08/20 01:53:02;;;;;;;10.95;9.65;;;26.60;82.30;;;;;;6217026;23;20066;-71
2023/08/20 01:55:28;;;;;;;11.85;9.73;;;26.60;82.40;;;;;;6216616;23;19996;-72
2023/08/20 01:57:54;;;;;;;11.40;9.65;;;26.60;82.40;;;;;;6216838;23;20028;-72
2023/08/20 02:00:19;;;;;;;14.02;9.43;;;26.60;82.50;;;;;;6216601;23;20023;-71
2023/08/20 02:02:45;;;;;;;12.48;9.50;;;26.60;82.70;;;;;;6190495;23;20023;-71
2023/08/20 02:05:11;;;;;;;11.05;9.50;;;26.60;82.70;;;;;;6216976;23;20067;-71
2023/08/20 02:07:36;;;;;;;10.30;9.30;;;26.50;82.60;;;;;;6216652;23;20005;-72
2023/08/20 02:10:03;;;;;;;10.93;9.80;;;26.60;82.70;;;;;;6216701;23;20001;-72
2023/08/20 02:12:28;;;;;;;13.57;9.77;;;26.50;82.50;;;;;;6216700;23;20007;-71
2023/08/20 02:14:54;;;;;;;10.15;9.15;;;26.50;82.30;;;;;;6216493;23;20423;-71
2023/08/20 02:17:20;;;;;;;12.15;9.50;;;26.50;82.30;;;;;;6216741;23;20008;-71
2023/08/20 02:19:45;;;;;;;11.65;9.40;;;26.50;82.50;;;;;;6216466;23;20431;-72
2023/08/20 02:22:11;;;;;;;11.10;9.18;;;26.50;82.40;;;;;;6216529;23;20075;-71
2023/08/20 02:24:37;;;;;;;10.20;9.13;;;26.50;82.40;;;;;;6190572;23;20081;-71
2023/08/20 02:27:03;;;;;;;11.50;9.18;;;26.50;82.40;;;;;;6216630;23;20008;-71
2023/08/20 02:29:29;;;;;;;12.65;9.23;;;26.50;82.40;;;;;;6216441;23;20005;-72
2023/08/20 02:31:55;;;;;;;10.27;9.20;;;26.40;82.30;;;;;;6216718;23;20007;-72
2023/08/20 02:34:20;;;;;;;10.05;9.05;;;26.40;82.40;;;;;;6216727;23;20033;-71
2023/08/20 02:36:48;;;;;;;10.77;9.50;;;26.40;82.60;;;;;;6216306;23;20012;-71
2023/08/20 02:39:14;;;;;;;11.15;9.68;;;26.40;82.60;;;;;;6216497;23;20032;-71
2023/08/20 02:41:39;;;;;;;9.60;8.60;;;26.40;82.80;;;;;;6216454;23;20001;-71
2023/08/20 02:44:05;;;;;;;10.88;9.00;;;26.40;83.00;;;;;;6216283;23;20487;-71
2023/08/20 02:46:31;;;;;;;13.75;8.85;;;26.30;82.90;;;;;;6215937;23;20001;-71
2023/08/20 02:48:57;;;;;;;15.35;10.32;;;26.30;82.90;;;;;;6215815;23;20053;-70
2023/08/20 02:51:23;;;;;;;17.95;10.25;;;26.30;83.10;;;;;;6215923;23;20007;-70
2023/08/20 02:53:49;;;;;;;16.23;10.23;;;26.30;83.40;;;;;;6216104;23;20339;-70
2023/08/20 02:56:14;;;;;;;22.65;11.15;;;26.30;83.80;;;;;;6216146;23;20000;-70
2023/08/20 02:58:40;;;;;;;30.55;11.93;;;26.20;84.40;;;;;;6189455;23;20009;-71
2023/08/20 03:01:06;;;;;;;20.90;11.00;;;26.20;84.60;;;;;;6216033;23;20370;-71
2023/08/20 03:03:32;;;;;;;21.05;11.50;;;26.20;84.50;;;;;;6215861;23;20312;-71
2023/08/20 03:05:58;;;;;;;18.08;10.65;;;26.20;85.00;;;;;;6215556;23;20004;-72
2023/08/20 03:08:23;;;;;;;11.68;9.63;;;26.20;85.30;;;;;;6216506;23;20140;-72
2023/08/20 03:10:49;;;;;;;14.02;9.98;;;26.10;85.40;;;;;;6216032;23;20056;-72
2023/08/20 03:13:15;;;;;;;11.05;9.82;;;26.10;85.30;;;;;;6216351;23;20009;-71
2023/08/20 03:15:41;;;;;;;16.92;10.82;;;26.10;85.10;;;;;;6216037;23;19996;-72
2023/08/20 03:18:07;;;;;;;11.75;10.07;;;26.10;85.30;;;;;;6216152;23;20034;-73
2023/08/20 03:20:32;;;;;;;15.30;10.25;;;26.00;85.40;;;;;;6216156;23;20028;-72
2023/08/20 03:22:58;;;;;;;20.25;11.63;;;26.00;85.30;;;;;;6189232;23;20009;-71
2023/08/20 03:25:24;;;;;;;20.75;10.77;;;25.90;85.90;;;;;;6189149;23;20001;-71
2023/08/20 03:27:51;;;;;;;10.57;9.25;;;25.90;86.50;;;;;;6215791;23;20012;-72
2023/08/20 03:30:17;;;;;;;17.60;10.68;;;25.90;86.20;;;;;;6215888;23;20086;-70
2023/08/20 03:32:43;;;;;;;16.38;10.60;;;25.90;86.10;;;;;;6189285;23;20431;-71
2023/08/20 03:35:09;;;;;;;11.07;10.07;;;25.90;86.40;;;;;;6215474;23;19997;-71
2023/08/20 03:37:35;;;;;;;14.57;9.93;;;25.90;86.70;;;;;;6215506;23;20000;-71
2023/08/20 03:40:02;;;;;;;17.92;10.35;;;25.90;86.70;;;;;;6215635;23;20039;-72
2023/08/20 03:42:27;;;;;;;13.52;10.57;;;25.90;86.30;;;;;;6215890;23;20480;-71
2023/08/20 03:44:53;;;;;;;12.95;10.93;;;25.80;86.00;;;;;;6215939;23;20024;-71
2023/08/20 03:47:22;;;;;;;11.52;10.32;;;25.80;85.80;;;;;;6215345;23;20047;-71
2023/08/20 03:49:48;;;;;;;11.48;10.27;;;25.70;85.90;;;;;;6215320;23;20027;-72
2023/08/20 03:52:14;;;;;;;11.98;10.73;;;25.70;86.50;;;;;;6215800;23;20000;-71
2023/08/20 03:54:40;;;;;;;14.77;10.93;;;25.70;86.40;;;;;;6215781;23;20437;-70
2023/08/20 03:57:05;;;;;;;12.85;10.98;;;25.60;86.40;;;;;;6215114;23;20005;-72
2023/08/20 03:59:31;;;;;;;13.60;10.85;;;25.60;86.40;;;;;;6215030;23;20127;-71
2023/08/20 04:01:57;;;;;;;13.18;10.57;;;25.50;86.70;;;;;;6215738;23;20036;-71
2023/08/20 04:04:23;;;;;;;12.23;11.02;;;25.50;86.90;;;;;;6215553;23;20013;-71
2023/08/20 04:06:49;;;;;;;11.45;10.35;;;25.50;86.80;;;;;;6215449;23;20000;-71
2023/08/20 04:09:16;;;;;;;11.93;10.52;;;25.40;86.70;;;;;;6215510;23;20039;-74
2023/08/20 04:11:42;;;;;;;15.00;10.73;;;25.50;86.80;;;;;;6215717;23;20000;-71
2023/08/20 04:14:08;;;;;;;14.07;9.73;;;25.50;86.80;;;;;;6215438;23;20004;-71
2023/08/20 04:16:34;;;;;;;14.52;10.93;;;25.40;86.80;;;;;;6215578;23;20151;-71
2023/08/20 04:18:59;;;;;;;17.33;10.80;;;25.40;86.60;;;;;;6215740;23;20000;-71
2023/08/20 04:21:25;;;;;;;12.38;10.70;;;25.40;86.40;;;;;;6215289;23;20463;-71
2023/08/20 04:23:51;;;;;;;13.40;10.75;;;25.40;86.30;;;;;;6215054;23;20071;-71
2023/08/20 04:26:17;;;;;;;11.45;10.23;;;25.40;87.00;;;;;;6215366;23;20316;-71
2023/08/20 04:28:43;;;;;;;14.02;10.98;;;25.30;87.10;;;;;;6188586;23;20011;-72
2023/08/20 04:31:08;;;;;;;11.45;10.30;;;25.40;87.00;;;;;;6215234;23;19996;-72
2023/08/20 04:33:34;;;;;;;15.63;10.65;;;25.30;87.10;;;;;;6215091;23;20008;-72
2023/08/20 04:36:00;;;;;;;11.55;10.27;;;25.30;87.10;;;;;;6214555;23;20016;-72
2023/08/20 04:38:26;;;;;;;11.48;10.23;;;25.30;87.30;;;;;;6211704;23;20028;-71
2023/08/20 04:40:52;;;;;;;11.10;10.02;;;25.30;87.20;;;;;;6185026;23;20308;-72
2023/08/20 04:43:18;;;;;;;13.57;10.85;;;25.20;87.10;;;;;;6212097;23;20058;-73
2023/08/20 04:45:43;;;;;;;12.18;10.90;;;25.30;87.10;;;;;;6213517;23;20028;-74
2023/08/20 04:48:09;;;;;;;16.27;11.30;;;25.20;87.10;;;;;;6215007;23;20087;-74
2023/08/20 04:50:35;;;;;;;13.43;10.98;;;25.30;87.30;;;;;;6216832;23;20003;-73
2023/08/20 04:53:01;;;;;;;12.82;10.88;;;25.20;87.20;;;;;;6215120;23;20008;-74
2023/08/20 04:55:30;;;;;;;13.05;11.73;;;25.20;87.20;;;;;;6215364;23;20012;-74
2023/08/20 04:57:55;;;;;;;13.30;11.40;;;25.20;87.40;;;;;;6214694;23;20300;-75
2023/08/20 05:00:22;;;;;;;11.60;10.40;;;25.20;87.60;;;;;;6214977;23;20032;-74
2023/08/20 05:02:48;;;;;;;16.27;11.95;;;25.20;87.60;;;;;;6214913;23;20091;-74
2023/08/20 05:05:14;;;;;;;13.82;11.27;;;25.20;87.90;;;;;;6215074;23;20024;-75
2023/08/20 05:07:41;;;;;;;15.02;10.82;;;25.20;88.00;;;;;;6188455;23;20005;-74
2023/08/20 05:10:08;;;;;;;11.70;10.60;;;25.20;88.90;;;;;;6215089;23;20058;-74
2023/08/20 05:12:34;;;;;;;14.15;11.48;;;25.20;88.30;;;;;;6214987;23;20005;-75
2023/08/20 05:15:00;;;;;;;12.90;11.32;;;25.20;88.30;;;;;;6215269;23;20046;-75
2023/08/20 05:17:26;;;;;;;11.15;10.18;;;25.20;89.00;;;;;;6215373;23;20079;-75
2023/08/20 05:19:51;;;;;;;11.48;10.30;;;25.20;88.50;;;;;;6215178;23;20007;-74
2023/08/20 05:22:17;;;;;;;11.77;9.93;;;25.30;88.50;;;;;;6214444;23;20011;-75
2023/08/20 05:24:43;;;;;;;11.07;9.50;;;25.30;88.50;;;;;;6214792;23;20004;-75
2023/08/20 05:27:14;;;;;;;11.40;8.80;;;25.30;88.30;;;;;;6214887;23;20000;-76
2023/08/20 05:29:40;;;;;;;10.32;9.25;;;25.30;88.10;;;;;;6214829;23;20054;-75
2023/08/20 05:32:09;;;;;;;11.25;9.82;;;25.40;88.10;;;;;;6215073;23;20008;-74
2023/08/20 05:34:35;;;;;;;11.95;9.27;;;25.40;88.10;;;;;;6215417;23;20012;-73
2023/08/20 05:37:01;;;;;;;12.07;9.02;;;25.40;88.10;;;;;;6215072;23;20013;-74
2023/08/20 05:39:27;;;;;;;13.95;9.60;;;25.40;87.90;;;;;;6215189;23;20387;-75
2023/08/20 05:41:56;;;;;;;10.35;8.85;;;25.50;87.80;;;;;;6215058;23;20013;-75
2023/08/20 05:44:22;;;;;;;11.23;9.35;;;25.60;87.50;;;;;;6214988;23;20456;-74
2023/08/20 05:46:48;;;;;;;16.52;9.48;;;25.60;87.30;;;;;;6214575;23;20001;-74
2023/08/20 05:49:18;;;;;;;13.45;9.60;;;25.60;87.50;;;;;;6214507;23;20005;-73
2023/08/20 05:51:43;;;;;;;12.60;9.25;;;25.70;87.40;;;;;;6214709;23;20040;-75
2023/08/20 05:54:09;;;;;;;11.82;9.10;;;25.70;87.10;;;;;;6212689;23;20024;-75
2023/08/20 05:56:35;;;;;;;14.80;9.13;;;25.70;87.00;;;;;;6214401;23;20004;-74
2023/08/20 05:59:01;;;;;;;12.48;9.23;;;25.80;87.10;;;;;;6215016;23;20032;-75
2023/08/20 06:01:27;;;;;;;10.63;8.98;;;25.80;87.20;;;;;;6214675;23;19996;-74
2023/08/20 06:03:52;;;;;;;10.57;8.93;;;25.80;87.10;;;;;;6214901;23;20017;-75
2023/08/20 06:06:18;;;;;;;9.63;8.73;;;25.90;87.10;;;;;;6214561;23;20005;-74
2023/08/20 06:08:44;;;;;;;11.00;9.13;;;25.90;87.00;;;;;;6214885;23;20004;-74
2023/08/20 06:11:10;;;;;;;12.10;8.57;;;25.90;86.80;;;;;;6214718;23;20004;-74
2023/08/20 06:13:35;;;;;;;10.75;8.20;;;25.90;86.60;;;;;;6214868;23;20012;-75
2023/08/20 06:16:01;;;;;;;12.43;8.27;;;25.90;86.40;;;;;;6215128;23;20435;-74
2023/08/20 06:18:27;;;;;;;12.20;8.73;;;26.00;86.40;;;;;;6188473;23;20028;-75
2023/08/20 06:20:53;;;;;;;13.18;9.13;;;26.00;86.30;;;;;;6216186;23;20080;-74
2023/08/20 06:23:18;;;;;;;9.15;8.27;;;26.00;86.10;;;;;;6216521;23;20019;-74
2023/08/20 06:25:44;;;;;;;13.07;8.68;;;26.10;86.10;;;;;;6216424;23;20000;-75
2023/08/20 06:28:11;;;;;;;13.10;8.65;;;26.10;85.90;;;;;;6216674;23;20001;-74
2023/08/20 06:30:37;;;;;;;14.93;9.07;;;26.20;85.90;;;;;;6216544;23;20499;-74
2023/08/20 06:33:03;;;;;;;11.35;8.63;;;26.20;85.80;;;;;;6216457;23;20039;-74
2023/08/20 06:35:29;;;;;;;13.02;9.15;;;26.20;85.80;;;;;;6214214;23;20001;-74
2023/08/20 06:37:54;;;;;;;9.50;8.55;;;26.20;85.90;;;;;;6214479;23;20028;-75
2023/08/20 06:40:21;;;;;;;16.33;9.38;;;26.20;86.00;;;;;;6214887;23;20075;-76
2023/08/20 06:42:47;;;;;;;13.90;9.15;;;26.30;86.00;;;;;;6215204;23;20016;-75
2023/08/20 06:45:12;;;;;;;12.73;9.20;;;26.30;86.00;;;;;;6215036;23;20449;-75
2023/08/20 06:47:38;;;;;;;16.60;9.25;;;26.30;86.00;;;;;;6215236;23;20086;-75
2023/08/20 06:50:06;;;;;;;15.07;8.65;;;26.40;86.00;;;;;;6216256;23;19996;-75
2023/08/20 06:52:31;;;;;;;10.25;9.18;;;26.40;85.80;;;;;;6216730;23;20007;-75
2023/08/20 06:55:00;;;;;;;10.40;8.95;;;26.40;85.60;;;;;;6216319;23;20028;-74
2023/08/20 06:57:26;;;;;;;12.27;8.98;;;26.50;85.60;;;;;;6216194;23;20331;-75
2023/08/20 06:59:51;;;;;;;9.48;8.45;;;26.50;85.50;;;;;;6189873;23;20013;-75
2023/08/20 07:02:17;;;;;;;11.45;9.38;;;26.50;85.30;;;;;;6216547;23;20005;-74
2023/08/20 07:04:43;;;;;;;9.95;8.95;;;26.50;85.30;;;;;;6216841;23;20009;-74
2023/08/20 07:07:09;;;;;;;9.98;8.65;;;26.60;85.40;;;;;;6216472;23;20077;-74
2023/08/20 07:09:35;;;;;;;11.93;9.27;;;26.60;85.20;;;;;;6216154;23;20047;-74
2023/08/20 07:12:02;;;;;;;9.75;8.88;;;26.70;85.00;;;;;;6216583;23;19997;-73
2023/08/20 07:14:27;;;;;;;10.73;9.57;;;26.70;84.90;;;;;;6216972;23;20009;-74
2023/08/20 07:16:53;;;;;;;15.68;9.18;;;26.70;84.90;;;;;;6216238;23;20372;-74
2023/08/20 07:19:19;;;;;;;13.95;9.73;;;26.80;84.90;;;;;;6216105;23;20004;-74
2023/08/20 07:21:44;;;;;;;11.23;9.32;;;26.80;84.70;;;;;;6216365;23;20005;-74
2023/08/20 07:24:10;;;;;;;11.75;10.10;;;26.80;84.90;;;;;;6189542;23;20036;-74
2023/08/20 07:26:36;;;;;;;11.13;9.15;;;26.90;85.10;;;;;;6216473;23;20556;-74
2023/08/20 07:29:02;;;;;;;13.30;9.88;;;26.90;84.80;;;;;;6216162;23;20005;-74
2023/08/20 07:31:30;;;;;;;11.48;9.55;;;27.00;84.50;;;;;;6216465;23;20417;-74
2023/08/20 07:33:56;;;;;;;11.93;10.40;;;27.00;84.30;;;;;;6216048;23;20442;-74
2023/08/20 07:36:26;;;;;;;11.55;8.82;;;27.00;84.70;;;;;;6184592;23;20024;-75
2023/08/20 07:38:53;;;;;;;11.07;10.00;;;27.10;84.80;;;;;;6186382;23;20004;-76
2023/08/20 07:41:20;;;;;;;9.52;8.73;;;27.10;84.60;;;;;;6186140;23;20008;-73
2023/08/20 07:43:47;;;;;;;16.02;9.20;;;27.10;84.30;;;;;;6186083;23;20012;-75
2023/08/20 07:46:13;;;;;;;9.90;8.98;;;27.20;84.30;;;;;;6184369;23;20009;-75
2023/08/20 07:48:39;;;;;;;11.95;9.52;;;27.20;84.50;;;;;;6186212;23;20374;-75
2023/08/20 07:51:05;;;;;;;11.23;9.52;;;27.30;84.60;;;;;;6186149;23;20001;-75
2023/08/20 07:53:32;;;;;;;13.75;10.05;;;27.30;84.40;;;;;;6184260;23;20431;-75
2023/08/20 07:55:59;;;;;;;11.40;10.25;;;27.40;84.30;;;;;;6185974;23;20371;-75
2023/08/20 07:58:24;;;;;;;10.85;9.80;;;27.40;84.00;;;;;;6184417;23;20461;-75
2023/08/20 08:00:50;;;;;;;10.18;9.18;;;27.40;83.40;;;;;;6185987;23;20080;-75
2023/08/20 08:03:16;;;;;;;10.80;9.75;;;27.50;83.50;;;;;;6185936;23;20072;-76
2023/08/20 08:05:49;;;;;;;10.98;9.45;;;27.50;83.50;;;;;;6185844;23;20001;-75
2023/08/20 08:08:18;;;;;;;11.20;9.80;;;27.60;83.70;;;;;;6186104;23;20001;-75
2023/08/20 08:10:46;;;;;;;10.13;9.20;;;27.60;83.60;;;;;;6186157;23;20091;-75
2023/08/20 08:13:12;;;;;;;10.25;9.02;;;27.70;83.60;;;;;;6185631;23;20005;-75
2023/08/20 08:15:38;;;;;;;12.07;9.75;;;27.70;83.30;;;;;;6185938;23;20008;-75
2023/08/20 08:18:04;;;;;;;16.25;10.05;;;27.80;83.10;;;;;;6185754;23;20436;-75
2023/08/20 08:20:30;;;;;;;11.05;9.75;;;27.90;83.30;;;;;;6185978;23;19997;-75
2023/08/20 08:22:56;;;;;;;13.05;10.18;;;27.90;83.20;;;;;;6185626;23;20104;-76
2023/08/20 08:25:21;;;;;;;11.23;9.80;;;28.00;82.90;;;;;;6186074;23;20001;-75
2023/08/20 08:27:48;;;;;;;12.25;9.65;;;28.10;82.90;;;;;;6185729;23;20028;-74
2023/08/20 08:30:14;;;;;;;10.23;9.23;;;28.10;82.30;;;;;;6185725;23;19997;-75
2023/08/20 08:32:40;;;;;;;11.60;9.20;;;28.20;82.30;;;;;;6185949;23;20001;-74
2023/08/20 08:35:07;;;;;;;14.48;8.68;;;28.30;82.10;;;;;;6187273;23;20376;-74
2023/08/20 08:37:33;;;;;;;9.98;8.98;;;28.30;82.10;;;;;;6189180;23;20376;-75
2023/08/20 08:39:59;;;;;;;10.45;9.13;;;28.40;82.00;;;;;;6189199;23;20000;-74
2023/08/20 08:42:25;;;;;;;11.73;9.30;;;28.40;81.50;;;;;;6215357;23;20005;-74
2023/08/20 08:44:51;;;;;;;10.45;8.93;;;28.40;81.40;;;;;;6215911;23;20013;-74
2023/08/20 08:47:19;;;;;;;9.80;8.70;;;28.50;81.40;;;;;;6215610;23;20364;-74
2023/08/20 08:49:46;;;;;;;9.05;8.25;;;28.60;80.90;;;;;;6215684;23;20435;-74
2023/08/20 08:52:12;;;;;;;9.55;8.70;;;28.60;80.30;;;;;;6215632;23;20427;-74
2023/08/20 08:54:38;;;;;;;9.57;8.65;;;28.60;80.10;;;;;;6215770;23;20153;-74
2023/08/20 08:57:05;;;;;;;9.63;8.73;;;28.70;79.50;;;;;;6215623;23;20081;-73
2023/08/20 08:59:32;;;;;;;12.13;8.48;;;28.70;79.20;;;;;;6215433;23;20005;-74
2023/08/20 09:01:58;;;;;;;9.75;8.25;;;28.80;78.90;;;;;;6215425;23;19997;-74
2023/08/20 09:04:24;;;;;;;9.80;7.95;;;28.80;79.20;;;;;;6215433;23;20048;-74
2023/08/20 09:06:51;;;;;;;10.85;8.75;;;28.80;78.90;;;;;;6215551;23;20416;-74
2023/08/20 09:09:19;;;;;;;12.85;8.20;;;28.80;78.70;;;;;;6215410;23;20079;-73
2023/08/20 09:11:46;;;;;;;8.93;8.02;;;28.90;78.80;;;;;;6215400;23;20001;-73
2023/08/20 09:14:29;;;;;;;10.68;8.07;;;28.90;77.70;;;;;;6215585;23;20304;-74
2023/08/20 09:17:00;;;;;;;9.10;8.23;;;29.00;76.50;;;;;;6215398;23;20005;-74
2023/08/20 09:19:35;;;;;;;8.50;7.70;;;29.10;75.30;;;;;;6215349;23;20070;-74
2023/08/20 09:22:01;;;;;;;10.05;8.52;;;29.10;75.10;;;;;;6215531;23;20001;-74
2023/08/20 09:24:34;;;;;;;8.00;7.20;;;29.10;74.70;;;;;;6215618;23;20419;-74
2023/08/20 09:27:02;;;;;;;12.52;7.72;;;29.20;74.50;;;;;;6215178;23;20770;-74
2023/08/20 09:29:31;;;;;;;10.02;7.95;;;29.20;74.20;;;;;;6215474;23;20071;-74
2023/08/20 09:32:02;;;;;;;8.25;7.50;;;29.30;73.90;;;;;;6215533;23;20000;-75
2023/08/20 09:34:38;;;;;;;15.05;7.35;;;29.30;73.70;;;;;;6215372;23;20079;-76
2023/08/20 09:37:04;;;;;;;12.68;8.20;;;29.30;73.70;;;;;;6183610;23;20044;-75
2023/08/20 09:39:29;;;;;;;16.55;8.52;;;29.30;73.90;;;;;;6185564;23;20004;-74
2023/08/20 09:41:56;;;;;;;10.02;8.02;;;29.40;74.10;;;;;;6185367;23;20005;-75
2023/08/20 09:44:23;;;;;;;10.60;7.70;;;29.40;74.40;;;;;;6185444;23;20016;-75
2023/08/20 09:46:50;;;;;;;9.02;7.30;;;29.50;74.10;;;;;;6185141;23;20001;-75
2023/08/20 09:49:19;;;;;;;8.77;7.30;;;29.60;73.50;;;;;;6185308;23;20009;-76
2023/08/20 09:51:49;;;;;;;8.73;7.78;;;29.60;72.70;;;;;;6185359;23;20428;-76
2023/08/20 09:54:34;;;;;;;7.82;7.13;;;29.70;72.20;;;;;;6185428;23;20004;-76
2023/08/20 09:57:04;;;;;;;10.05;7.70;;;29.70;71.90;;;;;;6187207;23;20001;-74
2023/08/20 09:59:30;;;;;;;9.82;8.20;;;29.70;71.60;;;;;;6187344;23;20009;-74
2023/08/20 10:01:57;;;;;;;9.80;7.45;;;29.70;71.70;;;;;;6186860;23;20021;-74
2023/08/20 10:04:23;;;;;;;10.20;7.55;;;29.80;72.40;;;;;;6186853;23;20067;-74
2023/08/20 10:06:50;;;;;;;13.60;7.20;;;29.80;72.80;;;;;;6186905;23;19997;-74
2023/08/20 10:09:18;;;;;;;9.00;7.43;;;29.90;72.40;;;;;;6186968;23;20005;-75
2023/08/20 10:11:43;;;;;;;9.57;6.82;;;29.90;71.90;;;;;;6186714;23;20450;-74
2023/08/20 10:14:09;;;;;;;9.00;7.15;;;30.00;72.20;;;;;;6187069;23;20005;-73
2023/08/20 10:16:35;;;;;;;10.45;7.15;;;30.10;72.40;;;;;;6186977;23;19997;-74
2023/08/20 10:19:05;;;;;;;8.70;7.00;;;30.10;72.60;;;;;;6186709;23;20005;-73
2023/08/20 10:21:32;;;;;;;8.27;7.40;;;30.20;72.30;;;;;;6187137;23;20048;-74
2023/08/20 10:24:06;;;;;;;8.50;7.40;;;30.20;72.10;;;;;;6186670;23;20096;-74
2023/08/20 10:26:34;;;;;;;8.50;7.65;;;30.20;71.40;;;;;;6186870;23;20001;-73
2023/08/20 10:29:36;;;;;;;10.02;7.43;;;30.30;71.00;;;;;;6186639;23;20072;-74
2023/08/20 10:32:08;;;;;;;12.05;7.18;;;30.30;70.70;;;;;;6186868;23;20000;-74
2023/08/20 10:34:36;;;;;;;8.38;6.72;;;30.30;71.20;;;;;;6187034;23;20001;-74
2023/08/20 10:37:08;;;;;;;7.28;6.57;;;30.30;70.80;;;;;;6212025;23;20023;-73
2023/08/20 10:39:34;;;;;;;9.60;6.93;;;30.40;70.00;;;;;;6216927;23;20005;-74
2023/08/20 10:42:14;;;;;;;10.45;7.00;;;30.40;69.70;;;;;;6216499;23;19997;-74
2023/08/20 10:44:59;;;;;;;7.97;6.95;;;30.50;69.30;;;;;;6216919;23;20013;-74
2023/08/20 10:47:26;;;;;;;8.73;6.55;;;30.50;69.40;;;;;;6216553;23;20004;-74
2023/08/20 10:49:54;;;;;;;8.48;6.72;;;30.60;68.80;;;;;;6216803;23;20090;-74
2023/08/20 10:52:22;;;;;;;12.18;6.65;;;30.60;68.60;;;;;;6216796;23;20011;-74
2023/08/20 10:54:52;;;;;;;8.32;6.38;;;30.70;68.20;;;;;;6216773;23;19996;-75
2023/08/20 10:57:21;;;;;;;7.03;6.35;;;30.70;68.50;;;;;;6216527;23;20431;-74
2023/08/20 11:00:02;;;;;;;8.73;6.32;;;30.70;67.40;;;;;;6212531;23;20079;-75
2023/08/20 11:02:28;;;;;;;7.70;5.78;;;30.80;67.20;;;;;;6213177;23;20005;-74
2023/08/20 11:04:54;;;;;;;10.40;6.15;;;30.80;67.30;;;;;;6216305;23;20007;-74
2023/08/20 11:07:20;;;;;;;6.90;6.20;;;30.80;66.50;;;;;;6216346;23;20000;-74
2023/08/20 11:09:48;;;;;;;8.20;5.93;;;30.90;66.10;;;;;;6216593;23;20008;-74
2023/08/20 11:12:19;;;;;;;10.05;6.28;;;30.90;66.20;;;;;;6216430;23;20327;-74
2023/08/20 11:14:46;;;;;;;8.68;5.72;;;30.90;66.30;;;;;;6216570;23;20001;-75
2023/08/20 11:17:11;;;;;;;7.05;5.90;;;31.00;65.30;;;;;;6189899;23;20327;-74
2023/08/20 11:19:37;;;;;;;6.80;5.88;;;31.00;64.50;;;;;;6216676;23;20008;-74
2023/08/20 11:22:03;;;;;;;6.45;5.28;;;31.00;65.20;;;;;;6216335;23;20054;-75
2023/08/20 11:24:29;;;;;;;8.88;5.65;;;31.10;66.00;;;;;;6212944;23;20013;-74
2023/08/20 11:26:55;;;;;;;7.50;5.20;;;31.10;64.50;;;;;;6213127;23;20008;-74
2023/08/20 11:29:21;;;;;;;9.27;5.50;;;31.20;63.70;;;;;;6187401;23;20001;-75
2023/08/20 11:31:50;;;;;;;6.38;5.28;;;31.20;62.30;;;;;;6216218;23;19996;-74
2023/08/20 11:34:18;;;;;;;8.07;5.38;;;31.20;62.00;;;;;;6216254;23;20031;-74
2023/08/20 11:36:44;;;;;;;5.90;5.30;;;31.30;61.80;;;;;;6184483;23;20498;-74
2023/08/20 11:39:09;;;;;;;10.30;5.88;;;31.30;62.10;;;;;;6186066;23;20001;-74
2023/08/20 11:41:37;;;;;;;5.05;4.65;;;31.30;62.50;;;;;;6186140;23;20005;-74
2023/08/20 11:44:03;;;;;;;5.80;5.30;;;31.50;61.90;;;;;;6186487;23;20017;-74
2023/08/20 11:46:29;;;;;;;8.48;5.45;;;31.40;60.80;;;;;;6186213;23;20005;-74
2023/08/20 11:49:14;;;;;;;7.57;5.18;;;31.50;60.60;;;;;;6186509;23;20391;-74
2023/08/20 11:51:43;;;;;;;5.97;5.30;;;31.50;60.70;;;;;;6186282;23;20439;-74
2023/08/20 11:54:11;;;;;;;6.18;4.90;;;31.60;60.60;;;;;;6185904;23;20001;-74
2023/08/20 11:56:47;;;;;;;9.43;5.53;;;31.60;59.80;;;;;;6186125;23;20008;-74
2023/08/20 11:59:14;;;;;;;9.93;5.40;;;31.60;60.70;;;;;;6186036;23;20428;-74
2023/08/20 12:01:39;;;;;;;7.63;5.70;;;31.60;60.90;;;;;;6185585;23;20004;-74
2023/08/20 12:04:07;;;;;;;5.88;5.38;;;31.60;61.80;;;;;;6186020;23;20013;-74
2023/08/20 12:06:35;;;;;;;9.88;5.25;;;31.70;60.10;;;;;;6185815;23;19997;-74
2023/08/20 12:09:04;;;;;;;6.22;5.60;;;31.70;59.90;;;;;;6185815;23;20000;-74
2023/08/20 12:11:30;;;;;;;6.15;5.45;;;31.70;60.60;;;;;;6186129;23;19997;-74
2023/08/20 12:13:56;;;;;;;6.07;5.22;;;31.70;61.40;;;;;;6185952;23;20005;-74
2023/08/20 12:16:24;;;;;;;10.20;4.97;;;31.70;60.80;;;;;;6185906;23;20024;-74
2023/08/20 12:18:49;;;;;;;15.00;5.82;;;31.70;60.50;;;;;;6185408;23;20055;-74
2023/08/20 12:21:15;;;;;;;6.25;5.70;;;31.70;60.70;;;;;;6186118;23;20056;-74
2023/08/20 12:23:41;;;;;;;6.18;5.35;;;31.70;61.10;;;;;;6185682;23;20095;-74
2023/08/20 12:26:10;;;;;;;11.95;5.80;;;31.80;60.80;;;;;;6185519;23;20031;-74
2023/08/20 12:28:36;;;;;;;6.30;5.70;;;31.90;60.60;;;;;;6185770;23;20044;-74
2023/08/20 12:31:03;;;;;;;9.60;5.43;;;31.90;59.90;;;;;;6185741;23;20001;-74
2023/08/20 12:33:28;;;;;;;6.63;5.60;;;31.90;59.30;;;;;;6185754;23;20005;-73
2023/08/20 12:35:55;;;;;;;6.25;5.25;;;31.90;59.00;;;;;;6197162;23;20019;-75
2023/08/20 12:38:21;;;;;;;8.38;5.50;;;31.90;59.10;;;;;;6215829;23;20328;-74